Flight Track Log - Related Links

Times and Time Zones

All times are in EDT time to prevent confusion due to time zone crossing. See the SKW4664 flight status page for this flight to view local times or setup timezone preferences in your user account.

Time Position Orientation Groundspeed Altitude Reporting Facility
EDT Latitude Longitude Course Direction KTS MPH feet Rate Location/Type
Sat 03:47:59 PM 44.2575 -88.7011 291° West 245 282 7,600  Level Minneapolis Center
Sat 03:48:00 PM 44.3325 -88.9019 288° West  Level FlightAware Approximate
Sat 03:49:00 PM 44.3622 -89.0307 288° West  Level FlightAware Approximate
Sat 03:49:00 PM 44.2833 -88.8206 287° West 268 308 11,300  Level Minneapolis Center
Sat 03:50:00 PM 44.3920 -89.1596 288° West  Level FlightAware Approximate
Sat 03:50:02 PM 44.3094 -88.9269 289° West 282 325 13,400  Level Minneapolis Center
Sat 03:51:00 PM 44.4177 -89.2710 288° West  Level FlightAware Approximate
Sat 03:51:03 PM 44.3372 -89.0406 289° West 299 344 16,100  Level Minneapolis Center
Sat 03:52:00 PM 44.4436 -89.3823 288° West  Level FlightAware Approximate
Sat 03:52:05 PM 44.3658 -89.1553 289° West 311 358 17,800  Level Minneapolis Center
Sat 03:53:06 PM 44.3914 -89.2725 287° West 313 360 19,800 1,073 Climbing Minneapolis Center
Sat 03:54:08 PM 44.4214 -89.3919 289° West 322 371 20,000 98 Climbing Minneapolis Center
Sat 03:55:09 PM 44.4514 -89.5183 288° West 337 388 20,000  Level Minneapolis Center
Sat 03:56:23 PM 44.4814 -89.6447 288° West 341 392 20,000  Level Minneapolis Center
Sat 03:57:24 PM 44.5214 -89.8131 288° West 343 395 20,000  Level Minneapolis Center
Sat 03:58:26 PM 44.5514 -89.9392 288° West 342 394 20,000  Level Minneapolis Center
Sat 03:59:27 PM 44.5817 -90.0664 289° West 344 396 20,000  Level Minneapolis Center
Sat 04:00:29 PM 44.6142 -90.2108 288° West 377 434 20,000  Level Minneapolis Center
Sat 04:01:30 PM 44.6500 -90.3644 288° West 409 471 20,000  Level Minneapolis Center
Sat 04:02:32 PM 44.6875 -90.5311 288° West 388 447 20,000  Level Minneapolis Center
Sat 04:03:33 PM 44.7194 -90.6700 288° West 380 437 20,000  Level Minneapolis Center
Sat 04:04:35 PM 44.7533 -90.8156 288° West 389 448 20,000  Level Minneapolis Center
Sat 04:05:36 PM 44.7853 -90.9647 287° West 397 457 20,000  Level Minneapolis Center
Sat 04:06:38 PM 44.8186 -91.1114 288° West 396 456 20,000  Level Minneapolis Center
Sat 04:07:39 PM 44.8486 -91.2592 286° West 395 455 20,000  Level Minneapolis Center
Sat 04:08:41 PM 44.8867 -91.4319 287° West 403 464 20,000  Level Minneapolis Center
Sat 04:09:43 PM 44.9192 -91.5875 286° West 397 457 20,000  Level Minneapolis Center
Sat 04:10:44 PM 44.9464 -91.7364 285° West 391 450 20,000 -634 Level Minneapolis Center
Sat 04:11:46 PM 44.9753 -91.8853 285° West 392 451 18,700 -2,341 Descending Minneapolis Center
Sat 04:12:47 PM 45.0014 -92.0261 285° West 373 429 15,200 -3,366 Descending Minneapolis Center
Sat 04:13:49 PM 45.0267 -92.1603 285° West 356 410 11,800 -2,032 Descending Minneapolis Center
Sat 04:14:51 PM 45.0478 -92.2917 283° West 346 398 11,000 -390 Descending Minneapolis Center
Sat 04:15:52 PM 45.0281 -92.4289 259° West 360 414 11,000  Level Minneapolis Center
Sat 04:16:53 PM 45.0061 -92.5669 257° West 362 417 11,000  Level Minneapolis Center
Sat 04:17:55 PM 44.9789 -92.7331 257° West 364 419 11,000  Level Minneapolis Center
Sat 04:18:57 PM 44.9614 -92.8406 257° West 357 411 11,000 -353 Level Minneapolis Center
Sat 04:20:11 PM 44.9389 -92.9800 257° West 296 341 10,200 -1,279 Descending Minneapolis Center
Sat 04:21:13 PM 44.9419 -93.0958 272° West 268 308 8,100 -1,355 Descending Minneapolis Center
Sat 04:22:15 PM 44.9925 -93.1986 305° West 272 313 7,400 -1,024 Descending Minneapolis Center
Sat 04:23:16 PM 45.0361 -93.2847 306° West 273 314 6,000 -1,366 Descending Minneapolis Center
Sat 04:24:18 PM 45.0250 -93.3714 260° West 236 272 4,600 -1,355 Descending Minneapolis Center

Login

Don't have an account? Register now (free) for customized features, flight alerts, and more!